createdAt,value
2022-12-25T00:00:42.340Z,34.70
2022-12-25T00:05:38.856Z,34.28
2022-12-25T00:08:06.776Z,37.75
2022-12-25T00:10:33.823Z,38.28
2022-12-25T00:13:00.561Z,44.38
2022-12-25T00:15:27.596Z,46.30
2022-12-25T00:17:54.309Z,40.08
2022-12-25T00:20:21.045Z,44.17
2022-12-25T00:22:47.729Z,40.75
2022-12-25T00:25:14.516Z,34.08
2022-12-25T00:27:41.284Z,39.00
2022-12-25T00:30:08.812Z,38.30
2022-12-25T00:32:37.483Z,36.33
2022-12-25T00:35:05.619Z,32.65
2022-12-25T00:37:32.317Z,34.22
2022-12-25T00:39:59.046Z,34.40
2022-12-25T00:42:27.014Z,30.38
2022-12-25T00:44:53.704Z,28.90
2022-12-25T00:47:20.462Z,29.30
2022-12-25T00:49:47.327Z,26.10
2022-12-25T00:52:14.249Z,27.15
2022-12-25T00:54:40.983Z,37.58
2022-12-25T00:57:07.769Z,27.33
2022-12-25T00:59:34.869Z,30.08
2022-12-25T01:02:22.249Z,35.85
2022-12-25T01:04:50.761Z,31.60
2022-12-25T01:07:18.933Z,33.78
2022-12-25T01:10:04.780Z,34.63
2022-12-25T01:12:33.602Z,32.10
2022-12-25T01:15:00.396Z,32.92
2022-12-25T01:17:27.117Z,36.55
2022-12-25T01:19:53.908Z,27.67
2022-12-25T01:22:20.663Z,26.83
2022-12-25T01:24:47.361Z,25.67
2022-12-25T01:27:15.128Z,30.77
2022-12-25T01:29:41.825Z,32.42
2022-12-25T01:32:08.695Z,47.15
2022-12-25T01:34:35.935Z,39.58
2022-12-25T01:37:02.670Z,38.03
2022-12-25T01:39:29.405Z,35.53
2022-12-25T01:41:56.636Z,37.08
2022-12-25T01:47:05.723Z,34.05
2022-12-25T01:49:35.748Z,34.90
2022-12-25T01:52:11.124Z,34.95
2022-12-25T01:54:50.607Z,32.22
2022-12-25T01:57:23.550Z,37.50
2022-12-25T01:59:50.565Z,43.90
2022-12-25T02:02:17.716Z,35.80
2022-12-25T02:04:54.282Z,34.10
2022-12-25T02:07:23.977Z,32.20
2022-12-25T02:09:51.776Z,39.67
2022-12-25T02:12:32.893Z,41.42
2022-12-25T02:15:06.025Z,35.50
2022-12-25T02:17:41.720Z,35.00
2022-12-25T02:20:39.723Z,33.55
2022-12-25T02:23:15.484Z,33.45
2022-12-25T02:26:18.247Z,32.17
2022-12-25T02:28:53.698Z,36.80
2022-12-25T02:31:43.376Z,34.20
2022-12-25T02:34:32.896Z,37.25
2022-12-25T02:37:18.215Z,33.50
2022-12-25T02:39:59.432Z,28.77
2022-12-25T02:42:55.715Z,33.90
2022-12-25T02:45:53.373Z,32.78
2022-12-25T02:48:42.285Z,29.90
2022-12-25T02:51:32.490Z,30.27
2022-12-25T02:54:20.357Z,29.73
2022-12-25T02:57:07.732Z,30.08
2022-12-25T02:59:57.637Z,29.55
2022-12-25T03:02:45.705Z,28.77
2022-12-25T03:05:53.381Z,30.50
2022-12-25T03:08:24.548Z,27.60
2022-12-25T03:11:21.856Z,32.05
2022-12-25T03:13:51.557Z,31.90
2022-12-25T03:16:42.671Z,30.92
2022-12-25T03:19:28.152Z,35.65
2022-12-25T03:22:14.515Z,29.13
2022-12-25T03:25:00.330Z,30.30
2022-12-25T03:27:30.767Z,32.58
2022-12-25T03:30:16.308Z,32.00
2022-12-25T03:33:23.386Z,30.40
2022-12-25T03:36:07.784Z,33.05
2022-12-25T03:38:50.022Z,36.28
2022-12-25T03:42:01.605Z,34.33
2022-12-25T03:44:53.600Z,30.25
2022-12-25T03:47:51.756Z,29.52
2022-12-25T03:51:06.298Z,33.42
2022-12-25T03:54:00.214Z,31.65
2022-12-25T03:56:47.065Z,31.02
2022-12-25T03:59:40.415Z,31.63
2022-12-25T04:02:28.423Z,42.83
2022-12-25T04:05:14.053Z,34.13
2022-12-25T04:07:59.304Z,48.45
2022-12-25T04:10:44.408Z,38.75
2022-12-25T04:13:29.784Z,32.03
2022-12-25T04:16:15.132Z,34.92
2022-12-25T04:19:00.421Z,30.23
2022-12-25T04:21:45.741Z,38.50
2022-12-25T04:24:30.938Z,31.20
2022-12-25T04:27:16.206Z,39.03
2022-12-25T04:30:01.515Z,34.60
2022-12-25T04:32:46.616Z,33.50
2022-12-25T04:35:32.108Z,45.70
2022-12-25T04:37:58.988Z,29.17
2022-12-25T04:40:25.731Z,27.85
2022-12-25T04:42:53.290Z,25.60
2022-12-25T04:45:20.441Z,25.75
2022-12-25T04:50:13.786Z,34.65
2022-12-25T04:52:41.956Z,28.33
2022-12-25T04:55:10.956Z,22.02
2022-12-25T04:57:38.317Z,22.55
2022-12-25T05:02:33.357Z,20.92
2022-12-25T05:05:00.245Z,25.65
2022-12-25T05:07:27.046Z,29.52
2022-12-25T05:09:53.771Z,24.75
2022-12-25T05:12:20.497Z,24.67
2022-12-25T05:14:47.251Z,32.10
2022-12-25T05:17:14.047Z,25.58
2022-12-25T05:19:40.744Z,26.98
2022-12-25T05:22:07.512Z,26.60
2022-12-25T05:24:34.218Z,33.22
2022-12-25T05:27:01.021Z,31.08
2022-12-25T05:29:27.833Z,27.40
2022-12-25T05:31:54.558Z,27.52
2022-12-25T05:34:21.274Z,29.75
2022-12-25T05:36:48.056Z,37.20
2022-12-25T05:39:14.751Z,31.05
2022-12-25T05:41:41.460Z,33.65
2022-12-25T05:44:08.702Z,45.65
2022-12-25T05:49:02.208Z,37.35
2022-12-25T05:51:28.901Z,38.10
2022-12-25T05:53:55.822Z,29.60
2022-12-25T05:56:22.665Z,31.67
2022-12-25T05:58:49.436Z,41.60
2022-12-25T06:01:20.476Z,36.60
2022-12-25T06:03:48.055Z,37.10
2022-12-25T06:06:14.995Z,39.55
2022-12-25T06:08:41.891Z,31.80
2022-12-25T06:11:11.039Z,35.55
2022-12-25T06:13:37.855Z,26.88
2022-12-25T06:16:10.125Z,25.33
2022-12-25T06:18:41.757Z,25.45
2022-12-25T06:21:13.599Z,31.70
2022-12-25T06:23:41.237Z,27.65
2022-12-25T06:26:11.055Z,31.98
2022-12-25T06:28:37.781Z,22.13
2022-12-25T06:31:09.347Z,31.75
2022-12-25T06:33:36.959Z,27.45
2022-12-25T06:36:13.960Z,29.15
2022-12-25T06:38:41.519Z,33.00
2022-12-25T06:41:23.033Z,28.27
2022-12-25T06:43:51.640Z,31.92
2022-12-25T06:46:19.344Z,36.45
2022-12-25T06:48:50.062Z,36.25
2022-12-25T06:51:22.145Z,38.50
2022-12-25T06:53:50.085Z,38.40
2022-12-25T06:56:20.135Z,35.03
2022-12-25T06:58:51.673Z,32.40
2022-12-25T07:01:29.037Z,31.30
2022-12-25T07:03:59.039Z,31.15
2022-12-25T07:06:26.365Z,20.83
2022-12-25T07:11:20.664Z,30.05
2022-12-25T07:13:47.868Z,29.95
2022-12-25T07:18:42.557Z,39.25
2022-12-25T07:21:13.617Z,40.00
2022-12-25T07:23:40.852Z,30.27
2022-12-25T07:28:35.216Z,51.30
2022-12-25T07:31:08.063Z,44.83
2022-12-25T07:33:34.889Z,54.20
2022-12-25T07:36:01.884Z,41.55
2022-12-25T07:38:29.173Z,45.78
2022-12-25T07:40:55.920Z,530.97
2022-12-25T07:43:23.016Z,257.17
2022-12-25T07:45:56.425Z,29.13
2022-12-25T07:48:23.422Z,33.35
2022-12-25T07:50:59.355Z,31.08
2022-12-25T07:53:27.652Z,27.20
2022-12-25T07:56:03.079Z,24.50
2022-12-25T07:58:30.953Z,26.10
2022-12-25T08:01:07.294Z,22.88
2022-12-25T08:03:35.517Z,29.13
2022-12-25T08:06:05.558Z,25.20
2022-12-25T08:08:33.045Z,20.85
2022-12-25T08:11:00.330Z,26.25
2022-12-25T08:13:30.226Z,27.08
2022-12-25T08:15:59.235Z,29.98
2022-12-25T08:18:29.920Z,30.92
2022-12-25T08:21:02.227Z,24.33
2022-12-25T08:23:28.954Z,32.30
2022-12-25T08:26:04.437Z,21.27
2022-12-25T08:28:33.579Z,21.92
2022-12-25T08:31:05.417Z,23.40
2022-12-25T08:33:32.566Z,26.17
2022-12-25T08:36:05.471Z,21.55
2022-12-25T08:38:32.860Z,21.13
2022-12-25T08:43:26.182Z,22.92
2022-12-25T08:45:53.033Z,26.35
2022-12-25T08:48:19.802Z,27.60
2022-12-25T08:50:48.049Z,24.27
2022-12-25T08:53:15.854Z,30.27
2022-12-25T08:55:42.646Z,24.80
2022-12-25T08:58:10.993Z,26.70
2022-12-25T09:03:04.753Z,40.78
2022-12-25T09:05:31.611Z,28.50
2022-12-25T09:07:58.496Z,20.70
2022-12-25T09:10:25.272Z,27.92
2022-12-25T09:12:51.957Z,24.42
2022-12-25T09:15:18.933Z,17.02
2022-12-25T09:17:45.673Z,15.13
2022-12-25T09:20:12.480Z,19.05
2022-12-25T09:22:39.193Z,19.67
2022-12-25T09:25:06.143Z,20.10
2022-12-25T09:27:32.847Z,15.52
2022-12-25T09:29:59.549Z,20.20
2022-12-25T09:32:26.382Z,18.92
2022-12-25T09:34:53.070Z,15.75
2022-12-25T09:37:19.768Z,14.75
2022-12-25T09:39:46.757Z,14.88
2022-12-25T09:42:22.511Z,11.68
2022-12-25T09:44:59.152Z,14.57
2022-12-25T09:50:07.816Z,13.80
2022-12-25T09:52:43.878Z,15.35
2022-12-25T09:55:20.629Z,13.65
2022-12-25T09:57:55.904Z,16.48
2022-12-25T10:00:25.167Z,11.95
2022-12-25T10:03:10.322Z,11.88
2022-12-25T10:06:13.296Z,11.98
2022-12-25T10:09:02.958Z,14.10
2022-12-25T10:11:47.978Z,15.98
2022-12-25T10:14:25.725Z,12.65
2022-12-25T10:19:47.630Z,11.65
2022-12-25T10:22:25.723Z,14.00
2022-12-25T10:24:56.841Z,30.15
2022-12-25T10:27:38.120Z,39.88
2022-12-25T10:30:15.695Z,17.10
2022-12-25T10:32:44.832Z,14.70
2022-12-25T10:35:18.653Z,11.45
2022-12-25T10:37:52.966Z,13.02
2022-12-25T10:40:38.469Z,14.57
2022-12-25T10:43:18.422Z,19.23
2022-12-25T10:45:47.870Z,12.23
2022-12-25T10:48:29.346Z,17.45
2022-12-25T10:50:56.739Z,10.50
2022-12-25T10:53:28.184Z,12.23
2022-12-25T10:56:04.801Z,11.85
2022-12-25T10:58:32.499Z,9.85
2022-12-25T11:01:07.134Z,8.57
2022-12-25T11:03:37.244Z,10.07
2022-12-25T11:06:05.084Z,11.77
2022-12-25T11:08:34.687Z,8.18
2022-12-25T11:11:06.314Z,10.68
2022-12-25T11:13:40.382Z,7.75
2022-12-25T11:16:14.498Z,7.15
2022-12-25T11:18:48.840Z,11.80
2022-12-25T11:21:17.530Z,7.18
2022-12-25T11:23:56.375Z,9.23
2022-12-25T11:26:23.485Z,11.00
2022-12-25T11:31:21.677Z,7.65
2022-12-25T11:33:52.457Z,5.45
2022-12-25T11:36:25.896Z,5.60
2022-12-25T11:38:52.906Z,6.22
2022-12-25T11:41:23.264Z,7.15
2022-12-25T11:43:56.044Z,6.90
2022-12-25T11:46:41.530Z,4.85
2022-12-25T11:49:14.696Z,6.95
2022-12-25T11:51:45.931Z,5.95
2022-12-25T11:54:38.222Z,6.90
2022-12-25T11:57:07.174Z,6.30
2022-12-25T11:59:40.267Z,6.75
2022-12-25T12:02:36.846Z,4.95
2022-12-25T12:05:15.148Z,5.32
2022-12-25T12:07:52.573Z,5.20
2022-12-25T12:10:47.878Z,4.82
2022-12-25T12:13:29.545Z,7.78
2022-12-25T12:15:57.733Z,6.75
2022-12-25T12:18:27.475Z,6.35
2022-12-25T12:21:18.653Z,6.80
2022-12-25T12:24:04.713Z,5.82
2022-12-25T12:26:38.198Z,6.55
2022-12-25T12:29:08.750Z,5.30
2022-12-25T12:31:42.461Z,6.65
2022-12-25T12:34:33.106Z,6.57
2022-12-25T12:37:05.157Z,6.65
2022-12-25T12:39:40.631Z,6.15
2022-12-25T12:42:18.061Z,6.43
2022-12-25T12:44:46.303Z,5.97
2022-12-25T12:47:38.637Z,6.07
2022-12-25T12:50:06.838Z,27.40
2022-12-25T12:52:38.169Z,7.32
2022-12-25T12:55:14.388Z,7.93
2022-12-25T12:57:42.907Z,6.57
2022-12-25T13:00:17.042Z,6.20
2022-12-25T13:02:43.752Z,8.00
2022-12-25T13:05:34.013Z,8.25
2022-12-25T13:08:16.498Z,5.35
2022-12-25T13:10:52.850Z,7.03
2022-12-25T13:13:27.819Z,8.27
2022-12-25T13:15:56.086Z,7.93
2022-12-25T13:18:22.812Z,7.75
2022-12-25T13:21:04.965Z,6.78
2022-12-25T13:23:37.820Z,5.80
2022-12-25T13:26:17.320Z,6.82
2022-12-25T13:28:46.749Z,7.20
2022-12-25T13:31:13.628Z,6.88
2022-12-25T13:36:13.588Z,8.65
2022-12-25T13:38:46.244Z,8.30
2022-12-25T13:41:37.437Z,9.18
2022-12-25T13:44:17.134Z,10.13
2022-12-25T13:46:44.591Z,9.15
2022-12-25T13:51:42.666Z,10.85
2022-12-25T13:54:13.196Z,8.23
2022-12-25T13:56:55.409Z,9.00
2022-12-25T13:59:24.932Z,7.97
2022-12-25T14:01:54.156Z,8.88
2022-12-25T14:04:24.582Z,8.80
2022-12-25T14:06:52.744Z,15.68
2022-12-25T14:09:20.480Z,8.93
2022-12-25T14:11:51.329Z,7.95
2022-12-25T14:14:23.452Z,10.20
2022-12-25T14:16:53.604Z,8.93
2022-12-25T14:19:33.023Z,8.02
2022-12-25T14:22:22.671Z,9.52
2022-12-25T14:24:49.805Z,7.65
2022-12-25T14:29:56.901Z,8.63
2022-12-25T14:32:27.618Z,9.48
2022-12-25T14:34:58.728Z,8.40
2022-12-25T14:37:31.410Z,9.00
2022-12-25T14:39:59.928Z,11.75
2022-12-25T14:42:32.468Z,9.68
2022-12-25T14:45:24.766Z,8.93
2022-12-25T14:47:53.764Z,8.70
2022-12-25T14:50:32.168Z,15.95
2022-12-25T14:52:59.708Z,11.10
2022-12-25T14:55:28.987Z,12.05
2022-12-25T14:58:05.333Z,13.85
2022-12-25T15:00:35.501Z,12.30
2022-12-25T15:03:05.909Z,13.52
2022-12-25T15:05:38.304Z,11.23
2022-12-25T15:08:13.875Z,13.25
2022-12-25T15:13:29.340Z,11.25
2022-12-25T15:16:02.497Z,11.18
2022-12-25T15:18:39.993Z,12.38
2022-12-25T15:21:11.402Z,14.07
2022-12-25T15:23:38.144Z,13.30
2022-12-25T15:26:04.956Z,12.20
2022-12-25T15:28:32.450Z,11.13
2022-12-25T15:30:59.254Z,11.23
2022-12-25T15:33:25.997Z,13.48
2022-12-25T15:35:52.717Z,12.77
2022-12-25T15:38:19.434Z,12.10
2022-12-25T15:40:47.202Z,16.58
2022-12-25T15:46:04.532Z,10.77
2022-12-25T15:48:31.309Z,14.25
2022-12-25T15:50:58.090Z,13.43
2022-12-25T15:53:26.442Z,15.35
2022-12-25T15:55:53.201Z,15.30
2022-12-25T15:58:19.919Z,16.08
2022-12-25T16:00:46.750Z,16.05
2022-12-25T16:03:13.533Z,12.57
2022-12-25T16:05:40.387Z,14.10
2022-12-25T16:08:07.204Z,13.15
2022-12-25T16:10:38.634Z,13.10
2022-12-25T16:13:05.595Z,13.60
2022-12-25T16:15:32.515Z,11.15
2022-12-25T16:17:59.246Z,13.07
2022-12-25T16:20:25.985Z,12.85
2022-12-25T16:22:52.683Z,11.30
2022-12-25T16:25:20.201Z,15.85
2022-12-25T16:27:47.492Z,16.35
2022-12-25T16:30:16.143Z,17.60
2022-12-25T16:32:44.192Z,16.52
2022-12-25T16:35:11.913Z,19.05
2022-12-25T16:37:39.978Z,21.40
2022-12-25T16:40:10.458Z,23.25
2022-12-25T16:42:38.347Z,19.40
2022-12-25T16:45:05.857Z,24.73
2022-12-25T16:47:32.640Z,22.25
2022-12-25T16:49:59.450Z,15.73
2022-12-25T16:52:26.354Z,14.80
2022-12-25T16:54:53.117Z,21.48
2022-12-25T16:57:19.839Z,25.15
2022-12-25T16:59:46.788Z,35.85
2022-12-25T17:02:17.072Z,19.92
2022-12-25T17:04:45.029Z,18.30
2022-12-25T17:07:13.064Z,16.55
2022-12-25T17:09:44.120Z,16.88
2022-12-25T17:12:11.385Z,20.38
2022-12-25T17:14:38.303Z,20.52
2022-12-25T17:17:05.052Z,21.80
2022-12-25T17:19:31.951Z,21.27
2022-12-25T17:21:59.903Z,19.85
2022-12-25T17:24:27.923Z,25.63
2022-12-25T17:26:54.731Z,27.30
2022-12-25T17:29:22.696Z,22.00
2022-12-25T17:31:50.275Z,23.58
2022-12-25T17:34:17.099Z,18.67
2022-12-25T17:36:43.993Z,19.25
2022-12-25T17:39:11.249Z,18.10
2022-12-25T17:44:04.852Z,20.52
2022-12-25T17:46:32.486Z,21.45
2022-12-25T17:49:01.130Z,22.75
2022-12-25T17:51:30.184Z,27.90
2022-12-25T17:54:00.559Z,20.00
2022-12-25T17:56:27.313Z,24.15
2022-12-25T17:58:57.082Z,26.88
2022-12-25T18:01:25.524Z,26.40
2022-12-25T18:03:52.467Z,24.67
2022-12-25T18:06:21.573Z,23.30
2022-12-25T18:08:49.171Z,21.45
2022-12-25T18:11:21.953Z,42.38
2022-12-25T18:13:52.328Z,40.63
2022-12-25T18:16:24.554Z,46.42
2022-12-25T18:18:53.004Z,51.67
2022-12-25T18:21:22.137Z,46.08
2022-12-25T18:23:49.734Z,231.93
2022-12-25T18:26:18.281Z,24.25
2022-12-25T18:28:45.574Z,24.92
2022-12-25T18:31:20.208Z,41.28
2022-12-25T18:33:48.253Z,29.13
2022-12-25T18:36:17.936Z,27.15
2022-12-25T18:38:45.237Z,52.03
2022-12-25T18:41:12.341Z,41.88
2022-12-25T18:43:52.778Z,28.75
2022-12-25T18:46:25.541Z,28.85
2022-12-25T18:48:56.542Z,34.13
2022-12-25T18:51:23.884Z,39.35
2022-12-25T18:56:20.205Z,33.88
2022-12-25T18:58:47.279Z,38.67
2022-12-25T19:01:19.618Z,25.52
2022-12-25T19:03:49.035Z,22.15
2022-12-25T19:06:22.700Z,31.17
2022-12-25T19:08:49.699Z,31.52
2022-12-25T19:11:17.897Z,22.02
2022-12-25T19:13:45.517Z,21.13
2022-12-25T19:16:12.929Z,24.92
2022-12-25T19:18:40.472Z,30.13
2022-12-25T19:21:09.012Z,40.75
2022-12-25T19:23:37.602Z,39.03
2022-12-25T19:26:08.849Z,168.80
2022-12-25T19:28:36.583Z,60.22
2022-12-25T19:31:07.468Z,106.80
2022-12-25T19:33:36.155Z,87.00
2022-12-25T19:36:07.215Z,75.05
2022-12-25T19:38:34.307Z,57.25
2022-12-25T19:43:35.603Z,92.47
2022-12-25T19:46:02.827Z,55.22
2022-12-25T19:50:57.647Z,31.20
2022-12-25T19:53:25.184Z,42.50
2022-12-25T19:55:52.924Z,37.53
2022-12-25T19:58:20.877Z,56.95
2022-12-25T20:01:01.464Z,26.65
2022-12-25T20:03:28.464Z,23.20
2022-12-25T20:05:55.311Z,19.85
2022-12-25T20:08:22.320Z,71.55
2022-12-25T20:10:49.610Z,27.42
2022-12-25T20:13:16.604Z,25.75
2022-12-25T20:15:43.574Z,30.70
2022-12-25T20:18:10.256Z,24.02
2022-12-25T20:20:36.997Z,32.28
2022-12-25T20:23:03.999Z,25.05
2022-12-25T20:25:30.835Z,23.85
2022-12-25T20:27:58.083Z,20.30
2022-12-25T20:32:51.353Z,15.82
2022-12-25T20:35:18.172Z,12.98
2022-12-25T20:37:45.012Z,20.48
2022-12-25T20:40:13.118Z,28.42
2022-12-25T20:42:39.868Z,29.65
2022-12-25T20:45:07.772Z,28.55
2022-12-25T20:47:35.297Z,26.58
2022-12-25T20:50:02.336Z,36.80
2022-12-25T20:52:29.090Z,33.05
2022-12-25T20:54:55.936Z,27.70
2022-12-25T20:57:22.743Z,28.58
2022-12-25T20:59:49.621Z,29.35
2022-12-25T21:02:34.324Z,25.58
2022-12-25T21:05:07.123Z,22.77
2022-12-25T21:07:34.275Z,22.45
2022-12-25T21:10:00.967Z,18.95
2022-12-25T21:12:27.684Z,15.30
2022-12-25T21:14:54.412Z,18.67
2022-12-25T21:17:21.195Z,18.98
2022-12-25T21:19:48.395Z,23.55
2022-12-25T21:22:15.452Z,22.65
2022-12-25T21:24:42.257Z,27.42
2022-12-25T21:27:09.144Z,58.88
2022-12-25T21:29:36.019Z,28.73
2022-12-25T21:32:21.621Z,34.67
2022-12-25T21:34:48.444Z,21.90
2022-12-25T21:37:17.296Z,25.30
2022-12-25T21:39:45.109Z,23.80
2022-12-25T21:42:12.391Z,33.00
2022-12-25T21:47:06.067Z,29.83
2022-12-25T21:52:19.235Z,306.58
2022-12-25T21:57:14.068Z,214.70
2022-12-25T22:02:11.546Z,288.27
2022-12-25T22:04:39.112Z,147.93
2022-12-25T22:09:46.369Z,71.70
2022-12-25T22:12:44.744Z,122.57
2022-12-25T22:15:12.033Z,44.38
2022-12-25T22:17:59.029Z,141.90
2022-12-25T22:20:35.597Z,210.93
2022-12-25T22:23:02.882Z,418.70
2022-12-25T22:25:29.746Z,427.48
2022-12-25T22:27:57.787Z,179.85
2022-12-25T22:30:27.445Z,229.02
2022-12-25T22:32:54.246Z,222.10
2022-12-25T22:35:21.394Z,162.07
2022-12-25T22:37:49.600Z,137.45
2022-12-25T22:40:19.244Z,216.70
2022-12-25T22:42:46.798Z,309.00
2022-12-25T22:45:14.216Z,167.65
2022-12-25T22:47:41.185Z,129.85
2022-12-25T22:50:08.665Z,132.05
2022-12-25T22:52:36.612Z,159.20
2022-12-25T22:55:04.619Z,396.27
2022-12-25T22:57:31.345Z,93.50
2022-12-25T22:59:58.272Z,174.65
2022-12-25T23:02:25.161Z,341.40
2022-12-25T23:04:53.023Z,414.13
2022-12-25T23:07:19.774Z,173.25
2022-12-25T23:09:46.634Z,398.17
2022-12-25T23:12:33.358Z,457.33
2022-12-25T23:15:00.238Z,181.73
2022-12-25T23:17:45.800Z,183.32
2022-12-25T23:20:33.009Z,407.90
2022-12-25T23:23:18.367Z,77.13
2022-12-25T23:26:03.625Z,192.93
2022-12-25T23:28:48.879Z,140.63
2022-12-25T23:31:15.678Z,114.90
2022-12-25T23:33:42.412Z,155.00
2022-12-25T23:36:09.329Z,142.73
2022-12-25T23:38:36.054Z,97.88
2022-12-25T23:41:02.855Z,124.97
2022-12-25T23:43:29.673Z,117.85
2022-12-25T23:45:56.385Z,114.93
2022-12-25T23:48:23.166Z,219.63
2022-12-25T23:50:49.849Z,252.93
2022-12-25T23:53:16.599Z,179.20
2022-12-25T23:55:43.497Z,227.65
2022-12-25T23:58:10.594Z,165.10
